Time;durP1;ratioP1;P1;durP2;ratioP2;P2;SDS_P1;SDS_P2;PMS_P1;PMS_P2;Temp;Humidity;BMP_temperature;BMP_pressure;BME280_temperature;BME280_humidity;BME280_pressure;Samples;Min_cycle;Max_cycle;Signal;HPM_P1;HPM_P2
2023/01/28 00:01:13;;;;;;;0.00;0.00;;;3.60;79.80;;;;;;4969857;28;20459;-73
2023/01/28 00:03:40;;;;;;;0.00;0.00;;;3.70;79.80;;;;;;4969517;28;20042;-73
2023/01/28 00:06:08;;;;;;;0.00;0.00;;;3.60;79.70;;;;;;4969208;28;20042;-74
2023/01/28 00:08:34;;;;;;;0.00;0.00;;;3.60;79.50;;;;;;4968848;28;20053;-73
2023/01/28 00:11:01;;;;;;;0.00;0.00;;;3.60;79.00;;;;;;4970251;28;20130;-73
2023/01/28 00:13:27;;;;;;;0.00;0.00;;;3.60;78.80;;;;;;4952990;28;20042;-73
2023/01/28 00:15:57;;;;;;;0.10;0.10;;;3.60;78.60;;;;;;4953191;28;20080;-73
2023/01/28 00:18:24;;;;;;;0.10;0.10;;;3.60;78.80;;;;;;4973407;28;20057;-73
2023/01/28 00:21:10;;;;;;;0.00;0.00;;;3.60;78.90;;;;;;4953060;28;20408;-73
2023/01/28 00:23:37;;;;;;;0.00;0.00;;;3.70;79.20;;;;;;4953673;28;20050;-73
2023/01/28 00:26:06;;;;;;;0.00;0.00;;;3.70;79.20;;;;;;4969976;28;20050;-72
2023/01/28 00:28:31;;;;;;;0.00;0.00;;;3.70;79.10;;;;;;4969061;28;20530;-72
2023/01/28 00:30:57;;;;;;;0.00;0.00;;;3.70;79.20;;;;;;4951509;28;20066;-72
2023/01/28 00:33:23;;;;;;;0.00;0.00;;;3.70;79.30;;;;;;4969664;28;20065;-72
2023/01/28 00:36:02;;;;;;;0.00;0.00;;;3.70;79.40;;;;;;4952351;28;20554;-72
2023/01/28 00:38:28;;;;;;;0.00;0.00;;;3.70;79.40;;;;;;4952423;28;20047;-72
2023/01/28 00:40:53;;;;;;;0.00;0.00;;;3.80;79.50;;;;;;4970315;28;20117;-72
2023/01/28 00:43:19;;;;;;;0.00;0.00;;;3.80;79.50;;;;;;4968750;28;20625;-72
2023/01/28 00:45:44;;;;;;;0.00;0.00;;;3.80;79.50;;;;;;4952656;28;20050;-72
2023/01/28 00:48:10;;;;;;;0.00;0.00;;;3.80;79.50;;;;;;4969999;28;20045;-72
2023/01/28 00:50:35;;;;;;;0.00;0.00;;;3.90;79.50;;;;;;4952299;28;20113;-73
2023/01/28 00:53:01;;;;;;;0.00;0.00;;;3.90;79.60;;;;;;4969696;28;20130;-72
2023/01/28 00:55:27;;;;;;;0.00;0.00;;;3.80;79.60;;;;;;4969627;28;20506;-72
2023/01/28 00:57:53;;;;;;;0.00;0.00;;;3.90;79.70;;;;;;4969608;28;20126;-73
2023/01/28 01:00:24;;;;;;;0.00;0.00;;;3.90;79.70;;;;;;4968273;28;20043;-73
2023/01/28 01:02:50;;;;;;;0.00;0.00;;;3.90;79.70;;;;;;4969160;28;20050;-73
2023/01/28 01:05:16;;;;;;;0.00;0.00;;;3.90;79.70;;;;;;4967735;28;20039;-73
2023/01/28 01:07:41;;;;;;;0.00;0.00;;;3.90;79.60;;;;;;4969377;28;20058;-73
2023/01/28 01:10:10;;;;;;;0.00;0.00;;;3.90;79.70;;;;;;4969380;28;20121;-72
2023/01/28 01:12:36;;;;;;;0.00;0.00;;;3.90;79.70;;;;;;4968732;28;20055;-72
2023/01/28 01:15:03;;;;;;;0.00;0.00;;;3.90;79.70;;;;;;4935650;28;20053;-73
2023/01/28 01:17:31;;;;;;;0.00;0.00;;;3.90;79.50;;;;;;4969371;28;20090;-72
2023/01/28 01:19:56;;;;;;;0.00;0.00;;;3.90;79.20;;;;;;4969042;28;20101;-73
2023/01/28 01:22:22;;;;;;;0.00;0.00;;;3.90;79.30;;;;;;4969386;28;20043;-72
2023/01/28 01:24:48;;;;;;;0.00;0.00;;;3.90;79.20;;;;;;4968781;28;20043;-73
2023/01/28 01:27:14;;;;;;;0.00;0.00;;;3.90;79.30;;;;;;4969959;28;20057;-73
2023/01/28 01:29:39;;;;;;;0.00;0.00;;;3.80;79.00;;;;;;4969078;28;20058;-73
2023/01/28 01:32:05;;;;;;;0.00;0.00;;;3.90;79.00;;;;;;4969061;28;20039;-72
2023/01/28 01:34:30;;;;;;;0.00;0.00;;;3.90;79.20;;;;;;4971738;28;21289;-73
2023/01/28 01:36:56;;;;;;;0.00;0.00;;;3.90;79.00;;;;;;4968896;28;20051;-72
2023/01/28 01:39:21;;;;;;;0.00;0.00;;;3.80;78.60;;;;;;4969572;28;20086;-72
2023/01/28 01:41:47;;;;;;;0.00;0.00;;;3.80;78.30;;;;;;4969660;28;20416;-73
2023/01/28 01:44:50;;;;;;;0.00;0.00;;;3.80;78.30;;;;;;4955305;28;20153;-73
2023/01/28 01:47:17;;;;;;;0.00;0.00;;;3.70;78.00;;;;;;4972391;28;20043;-73
2023/01/28 01:49:43;;;;;;;0.00;0.00;;;3.70;78.20;;;;;;4954706;28;20046;-72
2023/01/28 01:52:17;;;;;;;0.03;0.03;;;3.70;78.20;;;;;;4972539;28;20051;-73
2023/01/28 01:54:47;;;;;;;0.00;0.00;;;3.80;78.30;;;;;;4937585;28;20058;-73
2023/01/28 01:57:18;;;;;;;0.08;0.08;;;3.80;78.50;;;;;;4953322;28;20470;-73
2023/01/28 01:59:45;;;;;;;0.00;0.00;;;3.90;78.70;;;;;;4971438;28;20046;-73
2023/01/28 02:02:11;;;;;;;0.00;0.00;;;3.80;78.60;;;;;;4972181;28;20504;-73
2023/01/28 02:04:43;;;;;;;0.15;0.15;;;3.90;78.70;;;;;;4972202;28;20039;-73
2023/01/28 02:07:12;;;;;;;0.00;0.00;;;3.80;78.50;;;;;;4972382;28;20173;-73
2023/01/28 02:09:37;;;;;;;0.00;0.00;;;3.80;78.40;;;;;;4955979;28;20526;-73
2023/01/28 02:12:20;;;;;;;0.00;0.00;;;3.80;78.60;;;;;;4971569;28;20051;-72
2023/01/28 02:14:58;;;;;;;0.00;0.00;;;3.80;78.60;;;;;;4953723;28;20435;-72
2023/01/28 02:17:25;;;;;;;0.05;0.05;;;3.80;78.70;;;;;;4971805;28;20042;-73
2023/01/28 02:19:56;;;;;;;0.00;0.00;;;3.80;78.80;;;;;;4971872;28;20043;-73
2023/01/28 02:22:45;;;;;;;0.00;0.00;;;3.80;78.90;;;;;;4972483;28;20049;-73
2023/01/28 02:25:35;;;;;;;0.00;0.00;;;3.90;79.10;;;;;;4961249;28;20106;-73
2023/01/28 02:28:10;;;;;;;0.10;0.10;;;3.90;79.20;;;;;;4971193;28;20097;-73
2023/01/28 02:30:40;;;;;;;0.00;0.00;;;3.90;79.20;;;;;;4971745;28;20051;-73
2023/01/28 02:33:15;;;;;;;0.00;0.00;;;3.90;79.30;;;;;;4954039;28;20047;-73
2023/01/28 02:35:53;;;;;;;0.10;0.10;;;3.90;79.40;;;;;;4953533;28;20559;-73
2023/01/28 02:38:31;;;;;;;0.00;0.00;;;3.90;79.50;;;;;;4953954;28;20530;-72
2023/01/28 02:41:05;;;;;;;0.00;0.00;;;3.90;79.40;;;;;;4954044;28;20046;-72
2023/01/28 02:43:40;;;;;;;0.10;0.10;;;3.90;79.40;;;;;;4971223;28;20097;-72
2023/01/28 02:49:01;;;;;;;0.00;0.00;;;3.90;79.50;;;;;;4971354;28;20055;-72
2023/01/28 02:51:29;;;;;;;0.00;0.00;;;3.90;79.60;;;;;;4956421;28;20121;-72
2023/01/28 02:54:13;;;;;;;0.00;0.00;;;3.90;79.60;;;;;;4936444;28;20055;-72
2023/01/28 02:56:44;;;;;;;0.00;0.00;;;3.80;79.70;;;;;;4952853;28;20050;-72
2023/01/28 02:59:30;;;;;;;0.00;0.00;;;3.80;79.50;;;;;;4971049;28;20093;-72
2023/01/28 03:02:11;;;;;;;0.00;0.00;;;3.90;79.40;;;;;;4953297;28;20049;-72
2023/01/28 03:05:06;;;;;;;0.00;0.00;;;3.90;79.50;;;;;;4969106;28;20125;-72
2023/01/28 03:07:35;;;;;;;0.00;0.00;;;3.90;79.40;;;;;;4963287;28;20062;-72
2023/01/28 03:10:05;;;;;;;0.00;0.00;;;4.00;79.60;;;;;;4953570;28;20042;-72
2023/01/28 03:38:17;;;;;;;0.00;0.00;;;3.80;80.20;;;;;;4970266;28;20115;-73
2023/01/28 03:40:59;;;;;;;0.08;0.08;;;3.80;80.10;;;;;;4968898;28;20165;-73
2023/01/28 03:43:25;;;;;;;0.00;0.00;;;3.80;80.10;;;;;;4969050;28;20105;-73
2023/01/28 03:45:51;;;;;;;0.10;0.10;;;3.80;80.10;;;;;;4952021;28;20051;-73
2023/01/28 03:48:21;;;;;;;0.00;0.00;;;3.90;80.10;;;;;;4967732;28;20050;-73
2023/01/28 03:50:47;;;;;;;0.00;0.00;;;3.80;80.00;;;;;;4969473;28;20051;-73
2023/01/28 03:53:14;;;;;;;0.00;0.00;;;3.80;80.00;;;;;;4969222;28;20097;-73
2023/01/28 03:55:41;;;;;;;0.00;0.00;;;3.80;79.90;;;;;;4936576;28;20101;-73
2023/01/28 03:58:07;;;;;;;0.00;0.00;;;3.90;80.00;;;;;;4968097;28;20070;-73
2023/01/28 04:00:36;;;;;;;0.00;0.00;;;3.90;80.00;;;;;;4951301;28;20381;-73
2023/01/28 04:03:03;;;;;;;0.00;0.00;;;3.90;80.10;;;;;;4968760;28;20070;-73
2023/01/28 04:05:29;;;;;;;0.00;0.00;;;3.80;80.20;;;;;;4950945;28;20385;-73
2023/01/28 04:07:55;;;;;;;0.00;0.00;;;3.80;80.40;;;;;;4951480;28;20698;-73
2023/01/28 04:10:21;;;;;;;0.00;0.00;;;3.80;80.50;;;;;;4968960;28;20046;-73
2023/01/28 04:12:48;;;;;;;0.00;0.00;;;3.80;80.50;;;;;;4968664;28;20563;-73
2023/01/28 04:15:15;;;;;;;0.05;0.05;;;3.80;80.50;;;;;;4967995;28;20129;-73
2023/01/28 04:17:47;;;;;;;0.00;0.00;;;3.80;80.50;;;;;;4968685;28;20377;-73
2023/01/28 04:20:13;;;;;;;0.00;0.00;;;3.80;80.50;;;;;;4967444;28;20050;-73
2023/01/28 04:22:40;;;;;;;0.00;0.00;;;3.80;80.40;;;;;;4969143;28;20047;-73
2023/01/28 04:25:06;;;;;;;0.00;0.00;;;3.80;80.20;;;;;;4969090;28;20050;-71
2023/01/28 04:27:31;;;;;;;0.00;0.00;;;3.80;80.30;;;;;;4968630;28;20047;-71
2023/01/28 04:29:57;;;;;;;0.00;0.00;;;3.80;80.40;;;;;;4951871;28;20093;-71
2023/01/28 04:32:22;;;;;;;0.00;0.00;;;3.80;80.40;;;;;;4952110;28;20050;-73
2023/01/28 04:34:48;;;;;;;0.00;0.00;;;3.80;80.50;;;;;;4951544;28;20085;-73
2023/01/28 04:37:14;;;;;;;0.10;0.10;;;3.80;80.40;;;;;;4951873;28;20039;-73
2023/01/28 04:39:39;;;;;;;0.00;0.00;;;3.80;80.40;;;;;;4951306;28;20050;-73
2023/01/28 04:42:05;;;;;;;0.00;0.00;;;3.70;80.40;;;;;;4969191;28;20408;-73
2023/01/28 04:44:30;;;;;;;0.00;0.00;;;3.70;80.40;;;;;;4935755;28;20050;-73
2023/01/28 04:46:56;;;;;;;0.00;0.00;;;3.70;80.40;;;;;;4949698;28;20101;-72
2023/01/28 04:49:21;;;;;;;0.00;0.00;;;3.70;80.40;;;;;;4949795;28;20047;-74
2023/01/28 04:51:47;;;;;;;0.00;0.00;;;3.70;80.50;;;;;;4950283;28;20043;-72
2023/01/28 04:54:12;;;;;;;0.00;0.00;;;3.70;80.40;;;;;;4950756;28;20046;-70
2023/01/28 04:56:38;;;;;;;0.00;0.00;;;3.70;80.60;;;;;;4968379;28;20066;-71
2023/01/28 04:59:03;;;;;;;0.00;0.00;;;3.70;80.60;;;;;;4932374;28;20046;-72
2023/01/28 05:01:29;;;;;;;0.10;0.10;;;3.70;80.60;;;;;;4966859;28;20046;-72
2023/01/28 05:03:54;;;;;;;0.00;0.00;;;3.70;80.50;;;;;;4949299;28;20054;-72
2023/01/28 05:06:20;;;;;;;0.00;0.00;;;3.70;80.50;;;;;;4967003;28;20047;-72
2023/01/28 05:08:46;;;;;;;0.00;0.00;;;3.60;80.40;;;;;;4933447;28;20063;-72
2023/01/28 05:11:12;;;;;;;0.00;0.00;;;3.60;80.50;;;;;;4966510;28;20073;-72
2023/01/28 05:13:38;;;;;;;0.00;0.00;;;3.60;80.50;;;;;;4933222;28;20059;-74
2023/01/28 05:16:04;;;;;;;0.10;0.10;;;3.60;80.60;;;;;;4967465;28;20149;-73
2023/01/28 05:18:30;;;;;;;0.00;0.00;;;3.60;80.50;;;;;;4970674;28;20070;-73
2023/01/28 05:20:56;;;;;;;0.00;0.00;;;3.60;80.50;;;;;;4970333;28;20051;-74
2023/01/28 05:23:22;;;;;;;0.00;0.00;;;3.60;80.50;;;;;;4970910;28;20542;-74
2023/01/28 05:25:47;;;;;;;0.00;0.00;;;3.50;80.60;;;;;;4970956;28;20412;-74
2023/01/28 05:28:13;;;;;;;0.03;0.03;;;3.50;80.70;;;;;;4953494;28;20117;-74
2023/01/28 05:30:39;;;;;;;0.00;0.00;;;3.50;80.70;;;;;;4970119;28;20045;-74
2023/01/28 05:33:05;;;;;;;0.00;0.00;;;3.50;80.80;;;;;;4953223;28;20078;-73
2023/01/28 05:35:30;;;;;;;0.00;0.00;;;3.40;80.80;;;;;;4953321;28;20648;-74
2023/01/28 05:37:56;;;;;;;0.10;0.10;;;3.40;80.70;;;;;;4953654;28;20066;-74
2023/01/28 05:40:21;;;;;;;0.00;0.00;;;3.40;80.40;;;;;;4970600;28;20516;-74
2023/01/28 05:42:47;;;;;;;0.00;0.00;;;3.30;80.70;;;;;;4936799;28;20085;-74
2023/01/28 05:45:13;;;;;;;0.00;0.00;;;3.30;80.90;;;;;;4970291;28;20051;-74
2023/01/28 05:47:38;;;;;;;0.00;0.00;;;3.30;81.00;;;;;;4968246;28;20484;-74
2023/01/28 05:50:05;;;;;;;0.00;0.00;;;3.30;81.10;;;;;;4970911;28;20055;-74
2023/01/28 05:52:31;;;;;;;0.00;0.00;;;3.30;81.10;;;;;;4952989;28;20035;-74
2023/01/28 05:54:57;;;;;;;0.00;0.00;;;3.30;81.20;;;;;;4969336;28;20657;-74
2023/01/28 05:57:22;;;;;;;0.00;0.00;;;3.20;81.00;;;;;;4970505;28;20055;-74
2023/01/28 05:59:48;;;;;;;0.00;0.00;;;3.20;81.00;;;;;;4970006;28;20055;-74
2023/01/28 06:02:13;;;;;;;0.08;0.08;;;3.20;81.10;;;;;;4969463;28;20672;-74
2023/01/28 06:04:39;;;;;;;0.03;0.03;;;3.10;81.00;;;;;;4951806;28;20087;-73
2023/01/28 06:07:04;;;;;;;0.00;0.00;;;3.10;81.00;;;;;;4969380;28;20042;-73
2023/01/28 06:09:30;;;;;;;0.00;0.00;;;3.10;81.00;;;;;;4952470;28;20129;-74
2023/01/28 06:11:56;;;;;;;0.00;0.00;;;3.10;81.10;;;;;;4969530;28;20049;-74
2023/01/28 06:14:21;;;;;;;0.00;0.00;;;3.10;81.10;;;;;;4952868;28;20054;-73
2023/01/28 06:16:47;;;;;;;0.00;0.00;;;3.10;80.90;;;;;;4969628;28;20042;-74
2023/01/28 06:19:12;;;;;;;0.00;0.00;;;3.10;80.90;;;;;;4969911;28;20074;-73
2023/01/28 06:21:38;;;;;;;0.00;0.00;;;3.10;81.20;;;;;;4969955;28;20057;-74
2023/01/28 06:24:03;;;;;;;0.00;0.00;;;3.10;81.20;;;;;;4952635;28;20054;-74
2023/01/28 06:26:29;;;;;;;0.00;0.00;;;3.10;81.20;;;;;;4968704;28;20054;-74
2023/01/28 06:28:55;;;;;;;0.00;0.00;;;3.10;81.10;;;;;;4950765;28;20047;-74
2023/01/28 06:31:20;;;;;;;0.00;0.00;;;3.10;81.10;;;;;;4952006;28;20574;-74
2023/01/28 06:33:46;;;;;;;0.00;0.00;;;3.00;81.20;;;;;;4936112;28;20917;-74
2023/01/28 06:36:12;;;;;;;0.00;0.00;;;3.10;81.30;;;;;;4969719;28;20053;-73
2023/01/28 06:38:37;;;;;;;0.00;0.00;;;3.10;81.30;;;;;;4951644;28;20054;-73
2023/01/28 06:41:03;;;;;;;0.00;0.00;;;3.10;81.40;;;;;;4969475;28;20043;-73
2023/01/28 06:43:29;;;;;;;0.00;0.00;;;3.10;81.30;;;;;;4951535;28;20078;-72
2023/01/28 06:45:56;;;;;;;0.00;0.00;;;3.00;81.20;;;;;;4969135;28;20046;-73
2023/01/28 06:48:22;;;;;;;0.00;0.00;;;3.00;81.20;;;;;;4968198;28;20122;-73
2023/01/28 06:50:48;;;;;;;0.00;0.00;;;2.90;81.30;;;;;;4968731;28;21689;-72
2023/01/28 06:53:14;;;;;;;0.80;0.80;;;2.90;81.40;;;;;;4950421;28;20138;-73
2023/01/28 06:55:40;;;;;;;0.30;0.30;;;2.90;81.20;;;;;;4950590;28;20057;-73
2023/01/28 06:58:06;;;;;;;0.08;0.08;;;2.80;80.90;;;;;;4967628;28;20047;-73
2023/01/28 07:00:31;;;;;;;0.00;0.00;;;2.70;81.30;;;;;;4969132;28;20046;-73
2023/01/28 07:02:57;;;;;;;0.00;0.00;;;2.70;81.30;;;;;;4968930;28;20412;-73
2023/01/28 07:05:23;;;;;;;0.00;0.00;;;2.70;81.30;;;;;;4969108;28;20125;-73
2023/01/28 07:07:49;;;;;;;0.00;0.00;;;2.60;81.30;;;;;;4967179;28;20054;-73
2023/01/28 07:10:15;;;;;;;0.00;0.00;;;2.60;81.30;;;;;;4950514;28;20043;-73
2023/01/28 07:12:40;;;;;;;0.00;0.00;;;2.50;81.40;;;;;;4951216;28;20054;-73
2023/01/28 07:15:06;;;;;;;0.00;0.00;;;2.50;81.50;;;;;;4967354;28;20050;-74
2023/01/28 07:17:32;;;;;;;0.00;0.00;;;2.40;81.20;;;;;;4949601;28;20078;-73
2023/01/28 07:19:58;;;;;;;0.00;0.00;;;2.40;81.60;;;;;;4950948;28;20082;-73
2023/01/28 07:22:23;;;;;;;0.00;0.00;;;2.30;81.60;;;;;;4950833;28;20435;-73
2023/01/28 07:24:49;;;;;;;0.00;0.00;;;2.20;81.80;;;;;;4950428;28;20511;-73
2023/01/28 07:27:15;;;;;;;0.00;0.00;;;2.20;81.80;;;;;;4967697;28;20093;-72
2023/01/28 07:29:40;;;;;;;1.65;1.55;;;2.20;81.80;;;;;;4950512;28;20070;-74
2023/01/28 07:32:06;;;;;;;0.00;0.00;;;2.20;81.80;;;;;;4966609;28;20530;-73
2023/01/28 07:34:32;;;;;;;0.00;0.00;;;2.20;81.90;;;;;;4965830;28;20074;-72
2023/01/28 07:36:58;;;;;;;0.10;0.10;;;2.20;82.00;;;;;;4968541;28;21424;-72
2023/01/28 07:39:23;;;;;;;0.00;0.00;;;2.20;82.00;;;;;;4950197;28;20075;-74
2023/01/28 07:41:49;;;;;;;0.45;0.45;;;2.10;82.00;;;;;;4950602;28;20051;-75
2023/01/28 07:44:14;;;;;;;0.00;0.00;;;2.10;82.00;;;;;;4950083;28;20063;-75
2023/01/28 07:46:40;;;;;;;0.10;0.10;;;2.10;81.90;;;;;;4948705;28;20073;-74
2023/01/28 07:49:05;;;;;;;0.00;0.00;;;2.10;82.00;;;;;;4966261;28;20047;-74
2023/01/28 07:51:31;;;;;;;0.00;0.00;;;2.10;82.00;;;;;;4949955;28;20055;-74
2023/01/28 07:53:57;;;;;;;0.00;0.00;;;2.10;82.10;;;;;;4966843;28;20058;-74
2023/01/28 07:56:22;;;;;;;0.00;0.00;;;2.10;82.10;;;;;;4949237;28;20054;-74
2023/01/28 07:58:51;;;;;;;0.00;0.00;;;2.00;82.20;;;;;;4966058;28;20511;-74
2023/01/28 08:01:17;;;;;;;0.00;0.00;;;2.00;82.30;;;;;;4966606;28;20050;-74
2023/01/28 08:03:43;;;;;;;0.00;0.00;;;2.00;82.40;;;;;;4950985;28;20064;-73
2023/01/28 08:06:10;;;;;;;0.00;0.00;;;1.90;82.30;;;;;;4949154;28;20058;-74
2023/01/28 08:08:36;;;;;;;0.10;0.10;;;1.90;82.60;;;;;;4949014;28;20049;-73
2023/01/28 08:11:10;;;;;;;0.00;0.00;;;1.90;82.70;;;;;;4968139;28;20491;-73
2023/01/28 08:13:36;;;;;;;0.00;0.00;;;2.00;82.70;;;;;;4949310;28;20122;-74
2023/01/28 08:16:02;;;;;;;0.00;0.00;;;2.00;82.70;;;;;;4967461;28;20515;-73
2023/01/28 08:18:28;;;;;;;0.00;0.00;;;2.00;82.80;;;;;;4967003;28;20439;-73
2023/01/28 08:20:57;;;;;;;0.05;0.05;;;2.00;82.90;;;;;;4963642;28;20061;-73
2023/01/28 08:23:25;;;;;;;0.00;0.00;;;2.00;82.90;;;;;;4949962;28;20055;-72
2023/01/28 08:25:52;;;;;;;0.00;0.00;;;2.00;82.90;;;;;;4949149;28;20515;-73
2023/01/28 08:28:18;;;;;;;0.00;0.00;;;2.00;82.90;;;;;;4966700;28;20145;-72
2023/01/28 08:30:45;;;;;;;0.10;0.10;;;2.00;83.10;;;;;;4950138;28;20123;-72
2023/01/28 08:33:13;;;;;;;0.00;0.00;;;2.00;83.10;;;;;;4934426;28;20137;-72
2023/01/28 08:35:38;;;;;;;0.10;0.10;;;2.00;83.10;;;;;;4949052;28;20042;-72
2023/01/28 08:38:06;;;;;;;0.00;0.00;;;2.00;83.20;;;;;;4961570;28;20057;-72
2023/01/28 08:40:32;;;;;;;0.03;0.03;;;2.00;83.30;;;;;;4942254;28;20034;-72
2023/01/28 08:42:58;;;;;;;0.00;0.00;;;2.00;83.40;;;;;;4959639;28;20109;-72
2023/01/28 08:45:25;;;;;;;0.00;0.00;;;2.00;83.40;;;;;;4965008;28;20527;-72
2023/01/28 08:47:53;;;;;;;0.13;0.13;;;2.00;83.60;;;;;;4949166;28;20094;-74
2023/01/28 08:50:20;;;;;;;0.85;0.85;;;2.10;84.00;;;;;;4964004;28;20125;-74
2023/01/28 08:52:48;;;;;;;0.00;0.00;;;2.10;83.80;;;;;;4928655;28;20066;-74
2023/01/28 08:55:15;;;;;;;0.00;0.00;;;2.20;83.50;;;;;;4959087;28;20413;-74
2023/01/28 08:57:40;;;;;;;0.00;0.00;;;2.20;83.50;;;;;;4945703;28;20141;-72
2023/01/28 09:00:09;;;;;;;0.10;0.10;;;2.20;83.50;;;;;;4973011;28;20158;-73
2023/01/28 09:02:38;;;;;;;0.00;0.00;;;2.20;83.40;;;;;;4974001;28;20039;-73
2023/01/28 09:05:04;;;;;;;0.10;0.10;;;2.20;83.30;;;;;;4938412;28;20493;-75
2023/01/28 09:07:30;;;;;;;0.00;0.00;;;2.20;83.20;;;;;;4962838;28;20078;-72
2023/01/28 09:09:56;;;;;;;0.10;0.10;;;2.30;83.20;;;;;;4966301;28;20547;-66
2023/01/28 09:12:21;;;;;;;0.00;0.00;;;2.30;83.40;;;;;;4955028;28;20079;-69
2023/01/28 09:14:47;;;;;;;0.00;0.00;;;2.50;83.90;;;;;;4923818;29;20157;-69
2023/01/28 09:17:13;;;;;;;0.00;0.00;;;3.00;84.90;;;;;;4961693;28;20046;-68
2023/01/28 09:19:38;;;;;;;0.00;0.00;;;3.30;84.30;;;;;;4966760;28;20046;-69
2023/01/28 09:22:04;;;;;;;0.10;0.10;;;3.10;81.50;;;;;;4954290;28;20059;-68
2023/01/28 09:24:30;;;;;;;0.00;0.00;;;3.00;82.40;;;;;;4962661;28;20506;-68
2023/01/28 09:26:55;;;;;;;0.00;0.00;;;2.80;82.00;;;;;;4971748;28;20046;-68
2023/01/28 09:29:21;;;;;;;0.00;0.00;;;2.70;82.00;;;;;;4963774;28;20130;-68
2023/01/28 09:31:46;;;;;;;0.00;0.00;;;2.70;82.10;;;;;;4950175;28;20046;-67
2023/01/28 09:34:12;;;;;;;0.10;0.10;;;2.60;82.40;;;;;;4971683;28;20135;-67
2023/01/28 09:36:38;;;;;;;0.08;0.08;;;2.60;82.50;;;;;;4967108;28;20035;-69
2023/01/28 09:39:03;;;;;;;0.00;0.00;;;2.60;82.60;;;;;;4962330;28;20050;-68
2023/01/28 09:41:45;;;;;;;0.10;0.10;;;2.60;82.80;;;;;;4936889;29;20047;-68
2023/01/28 09:44:10;;;;;;;0.10;0.10;;;2.70;82.90;;;;;;4963986;28;20075;-68
2023/01/28 09:46:37;;;;;;;0.00;0.00;;;2.70;83.00;;;;;;4970753;28;20043;-68
2023/01/28 09:49:17;;;;;;;0.00;0.00;;;2.70;83.00;;;;;;4957252;28;20066;-68
2023/01/28 09:51:52;;;;;;;0.10;0.10;;;2.90;83.00;;;;;;4970476;28;20821;-68
2023/01/28 09:54:25;;;;;;;0.00;0.00;;;2.90;83.00;;;;;;4972768;28;20057;-69
2023/01/28 09:56:56;;;;;;;0.00;0.00;;;3.00;83.00;;;;;;4969314;28;20042;-70
2023/01/28 09:59:22;;;;;;;0.00;0.00;;;3.10;82.90;;;;;;4956843;28;20038;-70
2023/01/28 10:02:35;;;;;;;0.00;0.00;;;3.20;82.90;;;;;;4947509;28;20047;-70
2023/01/28 10:05:04;;;;;;;0.00;0.00;;;3.20;82.90;;;;;;4938951;28;20055;-70
2023/01/28 10:08:06;;;;;;;0.13;0.13;;;3.30;82.30;;;;;;4965671;28;20404;-70
2023/01/28 10:10:50;;;;;;;0.10;0.10;;;3.30;82.70;;;;;;4971423;28;20046;-70
2023/01/28 10:13:27;;;;;;;0.00;0.00;;;3.40;82.60;;;;;;4971709;28;21027;-70
2023/01/28 10:16:36;;;;;;;0.08;0.08;;;3.40;82.50;;;;;;4972674;28;20440;-70
2023/01/28 10:19:09;;;;;;;0.00;0.00;;;3.50;82.50;;;;;;4972628;28;20495;-70
2023/01/28 10:21:38;;;;;;;0.10;0.10;;;3.50;82.50;;;;;;4972528;28;20051;-70
2023/01/28 10:24:33;;;;;;;0.00;0.00;;;3.60;82.30;;;;;;4939445;28;20039;-70
2023/01/28 10:26:59;;;;;;;2.47;2.28;;;3.60;82.40;;;;;;4955676;28;20403;-70
2023/01/28 10:29:29;;;;;;;0.00;0.00;;;3.70;82.40;;;;;;4972402;28;20057;-70
2023/01/28 10:32:04;;;;;;;0.05;0.05;;;3.80;82.40;;;;;;4972766;28;20061;-70
2023/01/28 10:34:30;;;;;;;0.10;0.10;;;3.90;82.10;;;;;;4972554;28;20042;-70
2023/01/28 10:36:56;;;;;;;0.05;0.05;;;3.90;82.30;;;;;;4972475;28;20054;-70
2023/01/28 10:39:25;;;;;;;0.00;0.00;;;3.90;82.00;;;;;;4972609;28;20042;-70
2023/01/28 10:41:51;;;;;;;0.00;0.00;;;3.90;82.10;;;;;;4972151;28;20046;-70
2023/01/28 10:44:39;;;;;;;0.00;0.00;;;4.00;82.20;;;;;;4955109;28;20074;-70
2023/01/28 10:47:13;;;;;;;0.10;0.10;;;4.00;82.30;;;;;;4972411;28;20039;-70
2023/01/28 10:49:44;;;;;;;0.00;0.00;;;4.00;81.90;;;;;;4972315;28;20046;-70
2023/01/28 10:52:14;;;;;;;0.00;0.00;;;4.00;82.10;;;;;;4972015;28;20492;-70
2023/01/28 10:54:39;;;;;;;0.00;0.00;;;4.10;82.20;;;;;;4972317;28;20356;-70
2023/01/28 10:57:12;;;;;;;0.00;0.00;;;4.20;82.10;;;;;;4972461;28;20074;-70
2023/01/28 10:59:41;;;;;;;0.00;0.00;;;4.20;81.90;;;;;;4955054;28;20043;-70
2023/01/28 11:02:34;;;;;;;0.10;0.10;;;4.20;81.80;;;;;;4972159;28;20081;-70
2023/01/28 11:05:01;;;;;;;0.10;0.10;;;4.20;81.70;;;;;;4954885;28;20082;-70
2023/01/28 11:07:27;;;;;;;0.10;0.10;;;4.10;81.40;;;;;;4971638;28;20078;-70
2023/01/28 11:09:52;;;;;;;0.00;0.00;;;4.10;81.70;;;;;;4971908;28;20488;-70
2023/01/28 11:12:27;;;;;;;0.10;0.10;;;4.20;82.00;;;;;;4971847;28;20050;-70
2023/01/28 11:15:00;;;;;;;0.00;0.00;;;4.20;82.10;;;;;;4953929;28;20054;-70
2023/01/28 11:17:29;;;;;;;0.00;0.00;;;4.20;82.20;;;;;;4971567;28;20105;-70
2023/01/28 11:19:58;;;;;;;0.00;0.00;;;4.30;82.10;;;;;;4971758;28;20051;-70
2023/01/28 11:22:36;;;;;;;0.00;0.00;;;4.30;82.00;;;;;;4954640;28;20050;-70
2023/01/28 11:25:06;;;;;;;0.03;0.03;;;4.40;82.10;;;;;;4971733;28;20488;-70
2023/01/28 11:27:32;;;;;;;0.30;0.30;;;4.40;81.80;;;;;;4971092;28;20533;-70
2023/01/28 11:30:02;;;;;;;0.00;0.00;;;4.40;82.10;;;;;;4954839;28;20051;-70
2023/01/28 11:32:29;;;;;;;0.15;0.15;;;4.40;82.20;;;;;;4971457;28;20035;-70
2023/01/28 11:34:56;;;;;;;0.00;0.00;;;4.40;82.20;;;;;;4971558;28;20152;-70
2023/01/28 11:37:24;;;;;;;0.00;0.00;;;4.40;82.20;;;;;;4971326;28;20058;-70
2023/01/28 11:40:21;;;;;;;0.10;0.10;;;4.40;82.40;;;;;;4971273;28;20097;-70
2023/01/28 11:42:49;;;;;;;0.00;0.00;;;4.50;82.50;;;;;;4971471;28;20089;-70
2023/01/28 11:45:17;;;;;;;0.10;0.10;;;4.50;81.90;;;;;;4954006;28;20055;-70
2023/01/28 11:48:02;;;;;;;0.00;0.00;;;4.50;82.10;;;;;;4970651;28;20062;-70
2023/01/28 11:50:36;;;;;;;0.00;0.00;;;4.50;82.50;;;;;;4971307;28;20046;-70
2023/01/28 11:53:07;;;;;;;0.00;0.00;;;4.50;82.20;;;;;;4971211;28;20043;-70
2023/01/28 11:56:01;;;;;;;0.00;0.00;;;4.60;82.30;;;;;;4970948;28;20050;-70
2023/01/28 11:59:03;;;;;;;0.00;0.00;;;4.60;82.20;;;;;;4970924;28;20400;-70
2023/01/28 12:01:37;;;;;;;0.10;0.10;;;4.60;82.30;;;;;;4970961;28;20086;-70
2023/01/28 12:04:37;;;;;;;0.05;0.05;;;4.80;82.60;;;;;;4971145;28;20046;-70
2023/01/28 12:07:25;;;;;;;0.00;0.00;;;4.90;82.40;;;;;;4971173;28;20097;-70
2023/01/28 12:09:57;;;;;;;0.00;0.00;;;4.90;81.70;;;;;;4937199;28;20049;-70
2023/01/28 12:12:51;;;;;;;0.25;0.25;;;4.90;81.80;;;;;;4971007;28;20078;-70
2023/01/28 12:15:25;;;;;;;0.10;0.10;;;4.90;80.90;;;;;;4970955;28;20054;-70
2023/01/28 12:18:05;;;;;;;0.00;0.00;;;4.90;81.00;;;;;;4970781;28;20047;-71
2023/01/28 12:21:07;;;;;;;0.30;0.30;;;4.90;81.30;;;;;;4970828;28;20051;-70
2023/01/28 12:24:00;;;;;;;0.10;0.10;;;4.80;80.70;;;;;;4970836;28;20058;-71
2023/01/28 12:26:44;;;;;;;0.00;0.00;;;4.80;80.80;;;;;;4970075;28;20520;-70
2023/01/28 12:29:18;;;;;;;0.10;0.10;;;4.70;80.80;;;;;;4949894;28;20059;-70
2023/01/28 12:32:23;;;;;;;0.05;0.05;;;4.70;80.80;;;;;;4951392;28;20063;-70
2023/01/28 12:35:32;;;;;;;0.20;0.20;;;4.70;80.80;;;;;;4949730;28;20063;-70
2023/01/28 12:38:10;;;;;;;0.10;0.10;;;4.60;80.60;;;;;;4951222;28;20678;-70
2023/01/28 12:41:02;;;;;;;0.10;0.10;;;4.60;80.80;;;;;;4951148;28;20523;-70
2023/01/28 12:43:52;;;;;;;0.03;0.03;;;4.60;80.80;;;;;;4951496;28;20055;-70
2023/01/28 12:46:43;;;;;;;0.10;0.10;;;4.70;81.10;;;;;;4950944;28;20048;-70
2023/01/28 12:49:22;;;;;;;0.13;0.13;;;4.70;81.10;;;;;;4951350;28;20047;-70
2023/01/28 12:51:57;;;;;;;0.00;0.00;;;4.80;80.90;;;;;;4950171;28;20047;-70
2023/01/28 12:54:38;;;;;;;0.00;0.00;;;4.80;81.00;;;;;;4950966;28;20069;-70
2023/01/28 12:57:03;;;;;;;2.75;1.17;;;4.90;81.50;;;;;;4951496;28;20575;-70
2023/01/28 12:59:38;;;;;;;0.10;0.10;;;4.90;80.70;;;;;;4951434;28;20047;-70
2023/01/28 13:02:10;;;;;;;0.13;0.13;;;4.90;80.80;;;;;;4950851;28;20048;-70
2023/01/28 13:05:16;;;;;;;0.00;0.00;;;5.00;80.70;;;;;;4951058;28;20059;-70
2023/01/28 13:07:52;;;;;;;0.08;0.08;;;5.00;80.80;;;;;;4950310;28;20062;-70
2023/01/28 13:10:27;;;;;;;0.00;0.00;;;5.00;80.70;;;;;;4950999;28;20758;-70
2023/01/28 13:12:54;;;;;;;0.08;0.08;;;5.10;80.50;;;;;;4949552;28;20051;-70
2023/01/28 13:15:21;;;;;;;0.00;0.00;;;5.10;80.40;;;;;;4950699;28;20059;-70
2023/01/28 13:18:04;;;;;;;0.10;0.10;;;5.10;80.30;;;;;;4950787;28;20054;-70
2023/01/28 13:20:52;;;;;;;0.00;0.00;;;5.10;80.40;;;;;;4949428;29;20047;-70
2023/01/28 13:23:39;;;;;;;0.08;0.08;;;5.20;80.30;;;;;;4949821;28;20059;-70
2023/01/28 13:26:19;;;;;;;0.20;0.20;;;5.20;80.20;;;;;;4949700;28;20055;-70
2023/01/28 13:28:50;;;;;;;0.00;0.00;;;5.20;80.10;;;;;;4960625;28;20150;-70
2023/01/28 13:31:18;;;;;;;0.00;0.00;;;5.20;79.90;;;;;;4969959;28;20804;-70
2023/01/28 13:34:01;;;;;;;0.00;0.00;;;5.20;79.30;;;;;;4969885;28;20422;-70
2023/01/28 13:36:29;;;;;;;0.00;0.00;;;5.10;78.70;;;;;;4970348;28;20042;-71
2023/01/28 13:39:06;;;;;;;0.00;0.00;;;5.20;79.00;;;;;;4972650;28;20078;-70
2023/01/28 13:41:47;;;;;;;0.05;0.05;;;5.20;79.40;;;;;;4940790;28;20133;-70
2023/01/28 13:44:31;;;;;;;0.00;0.00;;;5.20;79.60;;;;;;4973501;28;20062;-70